イースター島 の空港の天気 - METARとTAF

マタベリ国際空港 ( SCIP / IPC ) - チリ イースター島
飛行場実況気象(Metar)
観測時間11/30 11:00 EAST (11/30 16:00 UTC)
風向・風速北西 6m/s
視程10km以上
天気現象
少しの雲 雲底高度 460m
全天の4割程度の雲 雲底高度 1220m
全天の8割程度の雲 雲底高度 1830m
気温24℃
湿度65%
気圧1021hPa
METARSCIP 301600Z 32011KT 9999 FEW015 SCT040 BKN060 24/17 Q1021 NOSIG
過去の天気等 Google飛行場航空写真 Wunderground天気予報

過去48時間のMETAR

飛行場予報(TAF)
発表時間: 11/30 05:48 EAST (11/30 10:48 UTC)
予報対象時間: 30日7時 EAST ~ 1日7時 EAST
風向・風速北北西 6m/s
視程10km以上
全天の4割程度の雲 雲底高度 610m
全天の4割程度の雲 雲底高度 1220m
30日10時 EAST ~ 30日13時 EAST に一時的に
視程5000m
天気現象弱いしゅう雨
全天の4割程度の雲 雲底高度 460m
全天の8割程度の雲 雲底高度 910m
TAF SCIP 301048Z 3012/0112 34012KT 9999 SCT020 SCT040 TX26/3020Z TN21/3013Z
TEMPO 3015/3018 5000 -SHRA SCT015 BKN030